Time;durP1;ratioP1;P1;durP2;ratioP2;P2;SDS_P1;SDS_P2;PMS_P1;PMS_P2;Temp;Humidity;BMP_temperature;BMP_pressure;BME280_temperature;BME280_humidity;BME280_pressure;Samples;Min_cycle;Max_cycle;Signal;HPM_P1;HPM_P2
2022/08/02 00:01:21;;;;;;;2.20;2.00;;;18.80;99.90;;;;;;5039624;28;20175;-72
2022/08/02 00:03:47;;;;;;;2.28;1.80;;;18.80;99.90;;;;;;5040028;28;20185;-72
2022/08/02 00:06:12;;;;;;;2.25;2.10;;;18.70;99.90;;;;;;5040641;28;20206;-72
2022/08/02 00:08:38;;;;;;;2.55;1.88;;;18.60;99.90;;;;;;5039612;28;20189;-72
2022/08/02 00:11:03;;;;;;;1.75;1.65;;;18.50;99.90;;;;;;5040341;28;20186;-72
2022/08/02 00:13:29;;;;;;;2.70;1.90;;;18.60;99.90;;;;;;5037255;28;20218;-72
2022/08/02 00:15:54;;;;;;;1.80;1.70;;;18.60;99.90;;;;;;5036879;28;20540;-72
2022/08/02 00:18:20;;;;;;;1.73;1.73;;;18.60;99.90;;;;;;5037649;28;20173;-72
2022/08/02 00:20:46;;;;;;;1.83;1.73;;;18.60;99.90;;;;;;5037332;28;20224;-72
2022/08/02 00:23:11;;;;;;;1.90;1.80;;;18.60;99.90;;;;;;5036411;28;20625;-72
2022/08/02 00:25:37;;;;;;;2.20;2.00;;;18.60;99.90;;;;;;5036930;28;20209;-72
2022/08/02 00:28:03;;;;;;;7.07;1.70;;;18.60;99.90;;;;;;5036788;28;20225;-72
2022/08/02 00:30:28;;;;;;;2.03;1.92;;;18.60;99.90;;;;;;5037819;28;20240;-72
2022/08/02 00:32:54;;;;;;;2.67;1.80;;;18.70;99.90;;;;;;5039087;28;20233;-72
2022/08/02 00:35:19;;;;;;;4.43;2.00;;;18.70;99.90;;;;;;5038886;28;20185;-72
2022/08/02 00:37:45;;;;;;;1.98;1.88;;;18.70;99.90;;;;;;5037992;28;20662;-72
2022/08/02 00:40:11;;;;;;;3.42;1.88;;;18.70;99.90;;;;;;5037844;28;20171;-72
2022/08/02 00:42:38;;;;;;;1.83;1.73;;;18.70;99.90;;;;;;5037507;28;20221;-72
2022/08/02 00:45:04;;;;;;;1.63;1.52;;;18.60;99.90;;;;;;5039246;28;20240;-72
2022/08/02 00:47:30;;;;;;;2.33;1.70;;;18.50;99.90;;;;;;5037875;28;20214;-72
2022/08/02 00:49:55;;;;;;;1.77;1.67;;;18.40;99.90;;;;;;5038526;28;20183;-72
2022/08/02 00:52:22;;;;;;;1.92;1.83;;;18.20;99.90;;;;;;5037002;28;20210;-72
2022/08/02 00:54:48;;;;;;;5.45;2.00;;;18.10;99.90;;;;;;5038499;28;20175;-72
2022/08/02 00:57:14;;;;;;;2.83;1.85;;;18.00;99.90;;;;;;5037756;28;20578;-72
2022/08/02 00:59:40;;;;;;;4.10;2.10;;;18.00;99.90;;;;;;5038039;28;20225;-72
2022/08/02 01:02:07;;;;;;;2.08;1.90;;;17.90;99.90;;;;;;5037803;28;20190;-72
2022/08/02 01:04:32;;;;;;;2.10;1.80;;;18.00;99.90;;;;;;5037625;28;20174;-72
2022/08/02 01:07:04;;;;;;;1.90;1.80;;;17.90;99.90;;;;;;5035561;28;20566;-72
2022/08/02 01:09:29;;;;;;;1.92;1.83;;;17.80;99.90;;;;;;5037032;28;20175;-72
2022/08/02 01:11:55;;;;;;;2.00;1.90;;;17.80;99.90;;;;;;5035983;28;20175;-72
2022/08/02 01:14:23;;;;;;;2.17;2.08;;;17.70;99.90;;;;;;5035663;28;20207;-72
2022/08/02 01:17:16;;;;;;;2.30;2.10;;;17.70;99.90;;;;;;5036614;28;20198;-72
2022/08/02 01:20:06;;;;;;;4.40;2.10;;;17.70;99.90;;;;;;5037145;28;20194;-72
2022/08/02 01:23:01;;;;;;;3.65;2.20;;;17.70;99.90;;;;;;5036461;28;20265;-72
2022/08/02 01:25:51;;;;;;;2.10;2.00;;;17.70;99.90;;;;;;5035903;28;20191;-72
2022/08/02 01:28:33;;;;;;;2.10;1.95;;;17.60;99.90;;;;;;5035803;28;20177;-72
2022/08/02 01:31:20;;;;;;;2.83;2.13;;;17.60;99.90;;;;;;5035699;28;20210;-72
2022/08/02 01:34:19;;;;;;;2.13;1.92;;;17.50;99.90;;;;;;5035634;28;20186;-72
2022/08/02 01:37:14;;;;;;;2.20;2.10;;;17.40;99.90;;;;;;5031840;28;20207;-72
2022/08/02 01:39:42;;;;;;;2.00;1.90;;;17.30;99.90;;;;;;5034908;28;20175;-72
2022/08/02 01:42:09;;;;;;;2.25;2.15;;;17.20;99.90;;;;;;5034849;28;20182;-72
2022/08/02 01:44:38;;;;;;;2.00;1.90;;;17.20;99.90;;;;;;5035707;28;20178;-72
2022/08/02 01:47:09;;;;;;;2.30;2.15;;;17.20;99.90;;;;;;5034275;28;20252;-72
2022/08/02 01:49:37;;;;;;;3.20;2.20;;;17.20;99.90;;;;;;5034847;28;20167;-72
2022/08/02 01:52:21;;;;;;;2.47;2.10;;;17.20;99.90;;;;;;5035394;28;20242;-72
2022/08/02 01:54:56;;;;;;;2.92;2.40;;;17.10;99.90;;;;;;5034776;28;20507;-72
2022/08/02 01:57:25;;;;;;;2.30;2.20;;;17.00;99.90;;;;;;5033758;28;20205;-72
2022/08/02 01:59:52;;;;;;;2.30;2.20;;;16.90;99.90;;;;;;5033695;28;20179;-72
2022/08/02 02:02:19;;;;;;;2.38;2.28;;;16.90;99.90;;;;;;5034060;28;20179;-72
2022/08/02 02:04:46;;;;;;;2.15;2.05;;;16.90;99.90;;;;;;5033819;28;20186;-72
2022/08/02 02:07:14;;;;;;;2.30;2.20;;;17.00;99.90;;;;;;5033683;28;20249;-72
2022/08/02 02:09:41;;;;;;;2.60;2.40;;;17.00;99.90;;;;;;5034402;28;20181;-72
2022/08/02 02:12:11;;;;;;;2.20;2.10;;;17.00;99.90;;;;;;5034691;28;20167;-72
2022/08/02 02:14:38;;;;;;;2.58;2.30;;;16.90;99.90;;;;;;5034797;28;20175;-72
2022/08/02 02:17:04;;;;;;;2.20;2.10;;;16.90;99.90;;;;;;5033384;28;20206;-72
2022/08/02 02:19:32;;;;;;;2.28;2.03;;;16.90;99.90;;;;;;5034689;28;20249;-72
2022/08/02 02:21:58;;;;;;;2.30;2.10;;;16.90;99.90;;;;;;5034192;28;20190;-72
2022/08/02 02:24:23;;;;;;;2.28;2.17;;;17.00;99.90;;;;;;5033530;28;20202;-72
2022/08/02 02:26:50;;;;;;;2.38;2.20;;;16.90;99.90;;;;;;5033508;28;20638;-72
2022/08/02 02:29:17;;;;;;;3.28;2.28;;;16.80;99.90;;;;;;5033515;28;20186;-72
2022/08/02 02:31:46;;;;;;;2.33;2.20;;;16.80;99.90;;;;;;5034416;28;20198;-72
2022/08/02 02:34:16;;;;;;;2.22;2.13;;;16.90;99.90;;;;;;5033853;28;20210;-72
2022/08/02 02:36:46;;;;;;;2.40;2.30;;;16.80;99.90;;;;;;5032977;28;20199;-72
2022/08/02 02:39:14;;;;;;;2.28;2.15;;;16.90;99.90;;;;;;5033041;28;20174;-72
2022/08/02 02:41:42;;;;;;;2.30;2.20;;;16.80;99.90;;;;;;5032892;28;20229;-72
2022/08/02 02:44:13;;;;;;;2.30;2.20;;;16.70;99.90;;;;;;5032798;28;20287;-72
2022/08/02 02:46:40;;;;;;;2.33;2.22;;;16.70;99.90;;;;;;5032869;28;20257;-72
2022/08/02 02:49:08;;;;;;;2.40;2.30;;;16.70;99.90;;;;;;5033084;28;20639;-72
2022/08/02 02:51:35;;;;;;;2.30;2.20;;;16.70;99.90;;;;;;5034290;28;20208;-72
2022/08/02 02:54:01;;;;;;;2.50;2.30;;;16.80;99.90;;;;;;5032687;28;20207;-72
2022/08/02 02:56:27;;;;;;;2.22;2.08;;;16.80;99.90;;;;;;5034174;28;20199;-72
2022/08/02 02:58:53;;;;;;;2.53;2.42;;;16.70;99.90;;;;;;5033541;28;20228;-72
2022/08/02 03:01:26;;;;;;;2.28;2.13;;;16.80;99.90;;;;;;5032652;28;20175;-72
2022/08/02 03:03:53;;;;;;;2.15;2.05;;;16.90;99.90;;;;;;5034229;28;20159;-72
2022/08/02 03:06:19;;;;;;;2.45;2.20;;;17.00;99.90;;;;;;5032809;28;20203;-72
2022/08/02 03:08:45;;;;;;;2.35;1.92;;;17.00;99.90;;;;;;5034046;28;20190;-72
2022/08/02 03:11:11;;;;;;;2.13;2.03;;;17.10;99.90;;;;;;5032515;28;20225;-72
2022/08/02 03:13:38;;;;;;;2.42;2.20;;;17.10;99.90;;;;;;5033921;28;20220;-72
2022/08/02 03:16:04;;;;;;;2.50;2.30;;;16.90;99.90;;;;;;5032651;28;20234;-72
2022/08/02 03:18:35;;;;;;;2.15;2.05;;;17.00;99.90;;;;;;5032999;28;20179;-72
2022/08/02 03:21:03;;;;;;;2.30;2.20;;;17.10;99.90;;;;;;5032451;28;20171;-72
2022/08/02 03:23:29;;;;;;;2.00;1.90;;;17.10;99.90;;;;;;5032561;28;20201;-72
2022/08/02 03:25:55;;;;;;;2.42;2.22;;;17.20;99.90;;;;;;5032637;28;20202;-72
2022/08/02 03:28:21;;;;;;;3.70;2.08;;;17.30;99.90;;;;;;5033081;28;20174;-72
2022/08/02 03:30:47;;;;;;;2.00;1.90;;;17.30;99.90;;;;;;5032123;28;20206;-72
2022/08/02 03:33:13;;;;;;;2.28;1.95;;;17.40;99.90;;;;;;5032353;28;20299;-72
2022/08/02 03:35:41;;;;;;;2.08;1.98;;;17.40;99.90;;;;;;5032265;28;20724;-72
2022/08/02 03:38:08;;;;;;;2.60;2.20;;;17.40;99.90;;;;;;5032051;28;20253;-72
2022/08/02 03:40:35;;;;;;;2.42;2.33;;;17.50;99.90;;;;;;5032147;28;20602;-72
2022/08/02 03:43:01;;;;;;;2.15;1.98;;;17.50;99.90;;;;;;5033271;28;20213;-72
2022/08/02 03:45:28;;;;;;;2.20;2.10;;;17.50;99.90;;;;;;5032093;28;20211;-72
2022/08/02 03:47:55;;;;;;;2.25;2.15;;;17.50;99.90;;;;;;5033189;28;20205;-72
2022/08/02 03:50:21;;;;;;;3.63;2.20;;;17.30;99.90;;;;;;5032002;28;20274;-72
2022/08/02 03:52:47;;;;;;;2.40;2.20;;;17.20;99.90;;;;;;5033466;28;20561;-72
2022/08/02 03:55:13;;;;;;;2.45;2.05;;;17.10;99.90;;;;;;5032038;28;20568;-72
2022/08/02 03:57:40;;;;;;;2.35;2.25;;;17.10;99.90;;;;;;5032325;28;20190;-72
2022/08/02 04:00:08;;;;;;;2.33;2.20;;;17.10;99.90;;;;;;5032068;28;20171;-72
2022/08/02 04:02:35;;;;;;;2.35;2.15;;;17.10;99.90;;;;;;5033185;28;20660;-72
2022/08/02 04:05:00;;;;;;;2.25;2.15;;;17.10;99.90;;;;;;5032314;28;20519;-72
2022/08/02 04:07:26;;;;;;;2.20;2.10;;;17.10;99.90;;;;;;5032326;28;20209;-72
2022/08/02 04:09:52;;;;;;;3.28;2.40;;;17.20;99.90;;;;;;5031890;28;20179;-72
2022/08/02 04:12:17;;;;;;;2.20;2.10;;;17.20;99.90;;;;;;5031879;28;20202;-72
2022/08/02 04:14:43;;;;;;;10.90;2.83;;;17.30;99.90;;;;;;5032482;28;20187;-72
2022/08/02 04:17:11;;;;;;;11.32;2.78;;;17.30;99.90;;;;;;5031856;28;20297;-72
2022/08/02 04:19:45;;;;;;;6.57;2.90;;;17.30;99.90;;;;;;5032207;28;20179;-72
2022/08/02 04:22:45;;;;;;;4.10;2.35;;;17.30;99.90;;;;;;5033455;28;20181;-72
2022/08/02 04:25:12;;;;;;;3.28;2.40;;;17.30;99.90;;;;;;5026339;28;20290;-72
2022/08/02 04:27:40;;;;;;;2.67;2.47;;;17.40;99.90;;;;;;5031562;28;20214;-72
2022/08/02 04:30:06;;;;;;;6.82;2.50;;;17.30;99.90;;;;;;5032530;28;20186;-72
2022/08/02 04:32:33;;;;;;;2.38;2.20;;;17.30;99.90;;;;;;5031610;28;20241;-72
2022/08/02 04:34:59;;;;;;;4.78;2.30;;;17.30;99.90;;;;;;5031989;28;20616;-72
2022/08/02 04:37:26;;;;;;;2.40;2.13;;;17.40;99.90;;;;;;5032457;28;20223;-72
2022/08/02 04:39:51;;;;;;;2.22;2.00;;;17.60;99.90;;;;;;5031778;28;20182;-72
2022/08/02 04:42:21;;;;;;;3.58;2.25;;;17.70;99.90;;;;;;5033247;28;20182;-72
2022/08/02 04:44:48;;;;;;;4.65;2.30;;;17.90;99.90;;;;;;5035618;28;20258;-72
2022/08/02 04:47:14;;;;;;;7.35;2.88;;;17.90;99.90;;;;;;5036876;28;20573;-72
2022/08/02 04:49:40;;;;;;;4.80;2.45;;;18.10;99.90;;;;;;5036382;28;20280;-72
2022/08/02 04:52:05;;;;;;;3.35;2.42;;;18.30;99.90;;;;;;5035257;28;20405;-76
2022/08/02 04:54:31;;;;;;;4.07;2.45;;;18.30;99.90;;;;;;5036965;28;20183;-72
2022/08/02 04:56:56;;;;;;;4.78;2.58;;;18.40;99.90;;;;;;5035877;28;20199;-72
2022/08/02 04:59:22;;;;;;;3.30;2.40;;;18.50;99.90;;;;;;5035203;28;20186;-72
2022/08/02 05:02:15;;;;;;;3.83;2.60;;;18.50;99.90;;;;;;5035264;28;20171;-72
2022/08/02 05:04:41;;;;;;;3.05;2.70;;;18.50;99.90;;;;;;5035443;28;20179;-72
2022/08/02 05:07:06;;;;;;;3.95;2.58;;;18.60;99.90;;;;;;5035215;28;20356;-72
2022/08/02 05:09:32;;;;;;;4.40;2.60;;;18.60;99.90;;;;;;5035704;28;20186;-72
2022/08/02 05:11:58;;;;;;;5.57;2.70;;;18.80;99.90;;;;;;5035486;28;20179;-72
2022/08/02 05:14:23;;;;;;;2.88;2.20;;;19.00;99.90;;;;;;5035203;28;20230;-72
2022/08/02 05:16:49;;;;;;;2.17;2.00;;;19.20;99.90;;;;;;5035590;28;20198;-72
2022/08/02 05:19:14;;;;;;;2.65;1.90;;;19.30;99.90;;;;;;5037836;28;20186;-72
2022/08/02 05:21:40;;;;;;;2.15;2.00;;;19.60;99.90;;;;;;5036967;28;20190;-72
2022/08/02 05:24:06;;;;;;;3.08;2.05;;;19.80;99.90;;;;;;5036774;28;20244;-72
2022/08/02 05:26:31;;;;;;;3.97;2.00;;;20.00;99.90;;;;;;5037166;28;20245;-72
2022/08/02 05:28:57;;;;;;;2.08;1.98;;;20.00;99.90;;;;;;5036449;28;20182;-72
2022/08/02 05:31:22;;;;;;;4.20;2.10;;;20.00;99.90;;;;;;5036438;28;20218;-72
2022/08/02 05:33:48;;;;;;;2.40;2.13;;;19.90;99.90;;;;;;5036140;28;20198;-72
2022/08/02 05:36:14;;;;;;;5.03;2.10;;;19.80;99.90;;;;;;5036360;28;20665;-72
2022/08/02 05:38:39;;;;;;;5.32;2.25;;;19.80;99.90;;;;;;5036515;28;20175;-73
2022/08/02 05:41:05;;;;;;;7.05;2.20;;;19.90;99.90;;;;;;5037662;28;20179;-72
2022/08/02 05:43:31;;;;;;;6.85;2.40;;;19.90;99.90;;;;;;5038491;28;20185;-72
2022/08/02 05:45:57;;;;;;;11.35;2.47;;;19.80;99.90;;;;;;5036494;28;20175;-72
2022/08/02 05:48:23;;;;;;;22.77;4.20;;;20.00;99.90;;;;;;5035861;28;20183;-72
2022/08/02 05:50:54;;;;;;;41.88;6.38;;;19.90;99.90;;;;;;5034913;28;20179;-72
2022/08/02 05:53:34;;;;;;;23.35;4.10;;;19.90;99.90;;;;;;5034550;28;20673;-72
2022/08/02 05:56:12;;;;;;;7.45;3.05;;;20.00;99.90;;;;;;5036076;28;20162;-73
2022/08/02 05:59:02;;;;;;;3.55;2.20;;;20.10;99.90;;;;;;5037563;28;20214;-72
2022/08/02 06:01:36;;;;;;;3.05;2.25;;;20.10;99.90;;;;;;5036430;28;20174;-72
2022/08/02 06:04:06;;;;;;;3.35;2.40;;;20.10;99.90;;;;;;5036586;28;20538;-72
2022/08/02 06:06:33;;;;;;;8.02;2.40;;;20.30;99.90;;;;;;5038012;28;20281;-72
2022/08/02 06:09:13;;;;;;;2.30;1.90;;;20.40;99.90;;;;;;5036654;28;20182;-72
2022/08/02 06:11:50;;;;;;;5.53;2.13;;;20.50;99.90;;;;;;5039255;28;20179;-72
2022/08/02 06:14:17;;;;;;;9.55;2.10;;;20.70;99.90;;;;;;5037242;28;20310;-72
2022/08/02 06:16:43;;;;;;;7.80;2.30;;;20.80;99.90;;;;;;5036474;28;20252;-72
2022/08/02 06:19:12;;;;;;;6.45;1.90;;;20.90;99.90;;;;;;5035326;28;20178;-72
2022/08/02 06:21:41;;;;;;;2.88;1.90;;;21.00;99.90;;;;;;5037903;28;20171;-72
2022/08/02 06:24:12;;;;;;;3.20;2.17;;;21.20;99.90;;;;;;5036785;28;20261;-72
2022/08/02 06:26:38;;;;;;;5.40;2.10;;;21.40;99.90;;;;;;5037486;28;20206;-72
2022/08/02 06:29:04;;;;;;;12.55;2.33;;;21.60;99.90;;;;;;5038884;28;20174;-72
2022/08/02 06:31:29;;;;;;;4.95;2.28;;;21.70;99.90;;;;;;5038641;28;20179;-72
2022/08/02 06:33:55;;;;;;;2.03;1.83;;;21.80;99.90;;;;;;5037384;28;20256;-72
2022/08/02 06:36:33;;;;;;;26.52;5.32;;;22.00;99.90;;;;;;5038041;28;20209;-72
2022/08/02 06:39:04;;;;;;;1.58;1.58;;;22.20;99.90;;;;;;5039581;28;20163;-72
2022/08/02 06:41:37;;;;;;;5.55;2.05;;;22.00;99.90;;;;;;5038139;28;20166;-72
2022/08/02 06:44:03;;;;;;;1.88;1.77;;;22.20;99.90;;;;;;5039247;28;20171;-72
2022/08/02 06:46:29;;;;;;;1.75;1.65;;;22.30;99.90;;;;;;5038953;28;20333;-72
2022/08/02 06:48:56;;;;;;;1.83;1.73;;;22.40;99.90;;;;;;5038740;28;20187;-72
2022/08/02 06:51:22;;;;;;;1.63;1.52;;;22.50;99.90;;;;;;5037752;28;20182;-72
2022/08/02 06:53:48;;;;;;;2.20;1.70;;;22.60;99.90;;;;;;5037522;28;20713;-72
2022/08/02 06:56:13;;;;;;;1.75;1.65;;;22.50;99.90;;;;;;5038124;28;20190;-72
2022/08/02 06:58:39;;;;;;;1.88;1.70;;;22.30;99.90;;;;;;5037200;28;20262;-72
2022/08/02 07:01:06;;;;;;;5.50;1.80;;;22.30;99.90;;;;;;5037418;28;20179;-72
2022/08/02 07:03:33;;;;;;;1.80;1.70;;;22.40;99.90;;;;;;5038506;28;20208;-72
2022/08/02 07:05:59;;;;;;;4.25;2.15;;;22.50;99.90;;;;;;5038143;28;20536;-72
2022/08/02 07:08:25;;;;;;;3.20;1.90;;;22.70;99.90;;;;;;5037559;28;20213;-72
2022/08/02 07:10:50;;;;;;;1.80;1.70;;;22.80;99.90;;;;;;5037813;28;20167;-72
2022/08/02 07:13:16;;;;;;;1.65;1.55;;;22.90;99.90;;;;;;5037973;28;20213;-72
2022/08/02 07:15:42;;;;;;;1.63;1.60;;;23.00;99.90;;;;;;5039052;28;20175;-72
2022/08/02 07:18:13;;;;;;;4.32;1.80;;;23.00;99.90;;;;;;5037879;28;20196;-72
2022/08/02 07:20:40;;;;;;;1.98;1.70;;;23.10;99.90;;;;;;5037003;28;20189;-72
2022/08/02 07:23:06;;;;;;;2.97;1.83;;;23.20;99.90;;;;;;5038339;28;20210;-72
2022/08/02 07:25:33;;;;;;;11.82;2.38;;;23.20;99.90;;;;;;5036491;28;20261;-72
2022/08/02 07:27:58;;;;;;;2.70;1.80;;;23.20;99.90;;;;;;5037091;28;20191;-72
2022/08/02 07:30:24;;;;;;;2.00;1.80;;;23.30;99.90;;;;;;5035546;28;20270;-72
2022/08/02 07:32:49;;;;;;;2.50;1.95;;;23.30;99.90;;;;;;5035142;28;20205;-72
2022/08/02 07:35:15;;;;;;;1.75;1.65;;;23.30;99.90;;;;;;5036775;28;20255;-72
2022/08/02 07:37:42;;;;;;;1.70;1.60;;;23.30;99.90;;;;;;5034314;28;20206;-73
2022/08/02 07:40:09;;;;;;;1.80;1.70;;;23.40;99.90;;;;;;5034230;28;20178;-72
2022/08/02 07:42:35;;;;;;;8.52;2.60;;;23.50;99.90;;;;;;5034476;28;20198;-72
2022/08/02 07:45:00;;;;;;;6.78;1.90;;;23.50;99.90;;;;;;5033028;28;20175;-80
2022/08/02 07:47:26;;;;;;;4.25;2.40;;;23.60;99.90;;;;;;5035370;28;20198;-72
2022/08/02 07:49:51;;;;;;;2.55;1.90;;;23.80;99.90;;;;;;5036011;28;20187;-72
2022/08/02 07:52:17;;;;;;;3.80;2.08;;;23.90;99.90;;;;;;5036127;28;20186;-72
2022/08/02 07:54:43;;;;;;;4.20;1.90;;;23.90;99.90;;;;;;5036927;28;20199;-72
2022/08/02 07:57:08;;;;;;;1.77;1.67;;;24.10;99.90;;;;;;5032966;28;20207;-73
2022/08/02 07:59:34;;;;;;;3.20;2.10;;;24.10;99.90;;;;;;5032526;28;20175;-73
2022/08/02 08:01:59;;;;;;;4.72;1.80;;;24.20;99.90;;;;;;5032389;28;20546;-73
2022/08/02 08:04:25;;;;;;;4.32;2.05;;;24.30;99.90;;;;;;5032418;28;20218;-73
2022/08/02 08:06:51;;;;;;;2.05;1.80;;;24.10;99.90;;;;;;5033559;28;20229;-73
2022/08/02 08:09:18;;;;;;;5.60;2.30;;;24.10;99.40;;;;;;5032251;28;20637;-72
2022/08/02 08:11:43;;;;;;;3.22;1.85;;;24.20;99.90;;;;;;5032214;28;20179;-72
2022/08/02 08:14:09;;;;;;;3.75;1.90;;;24.30;99.20;;;;;;5031704;28;20264;-72
2022/08/02 08:16:35;;;;;;;3.42;2.00;;;24.50;98.50;;;;;;5033915;28;20229;-72
2022/08/02 08:19:01;;;;;;;2.88;1.95;;;24.50;97.20;;;;;;5036827;28;20693;-73
2022/08/02 08:21:28;;;;;;;3.33;2.30;;;24.60;96.20;;;;;;5037242;28;20171;-73
2022/08/02 08:23:54;;;;;;;3.95;1.77;;;24.60;94.80;;;;;;5035965;28;20282;-73
2022/08/02 08:26:20;;;;;;;4.32;2.00;;;24.60;94.20;;;;;;5036652;28;20573;-73
2022/08/02 08:28:45;;;;;;;5.65;2.10;;;24.50;93.90;;;;;;5035760;28;20186;-73
2022/08/02 08:31:11;;;;;;;2.03;1.70;;;24.50;94.00;;;;;;5035636;28;20175;-77
2022/08/02 08:33:36;;;;;;;6.28;1.92;;;24.40;94.80;;;;;;5035598;28;20256;-73
2022/08/02 08:36:03;;;;;;;5.07;1.83;;;24.70;94.90;;;;;;5035238;28;20175;-73
2022/08/02 08:38:29;;;;;;;1.70;1.55;;;24.80;92.70;;;;;;5036002;28;20197;-73
2022/08/02 08:40:54;;;;;;;3.92;1.70;;;24.80;92.40;;;;;;5037150;28;20175;-73
2022/08/02 08:43:20;;;;;;;1.88;1.73;;;24.90;91.40;;;;;;5036467;28;20183;-72
2022/08/02 08:45:47;;;;;;;1.75;1.65;;;25.00;91.40;;;;;;5036022;28;20182;-73
2022/08/02 08:48:16;;;;;;;2.28;1.77;;;25.00;91.20;;;;;;5037003;28;20186;-73
2022/08/02 08:51:04;;;;;;;2.78;1.70;;;25.10;91.20;;;;;;5035499;28;20183;-73
2022/08/02 08:53:35;;;;;;;1.95;1.58;;;25.00;90.60;;;;;;5035259;28;20686;-72
2022/08/02 08:56:00;;;;;;;2.40;1.90;;;25.10;90.00;;;;;;5036407;28;20649;-72
2022/08/02 08:58:26;;;;;;;1.50;1.45;;;25.20;88.80;;;;;;5036412;28;20179;-72
2022/08/02 09:00:52;;;;;;;2.35;1.60;;;25.40;88.10;;;;;;5036338;28;20167;-73
2022/08/02 09:03:18;;;;;;;1.60;1.50;;;25.30;85.60;;;;;;5035244;28;20202;-73
2022/08/02 09:05:45;;;;;;;3.65;1.55;;;25.40;83.20;;;;;;5035289;28;20642;-73
2022/08/02 09:08:11;;;;;;;1.70;1.60;;;25.40;81.50;;;;;;5034718;28;20186;-73
2022/08/02 09:10:45;;;;;;;1.52;1.48;;;25.40;82.00;;;;;;5034956;28;20178;-73
2022/08/02 09:13:15;;;;;;;1.67;1.58;;;25.60;83.20;;;;;;5034867;28;20207;-73
2022/08/02 09:15:52;;;;;;;2.47;2.10;;;25.80;83.50;;;;;;5035059;28;20182;-72
2022/08/02 09:18:17;;;;;;;3.33;1.40;;;25.80;78.30;;;;;;5034571;28;20182;-72
2022/08/02 09:20:56;;;;;;;1.67;1.60;;;26.00;82.00;;;;;;5036141;28;20541;-72
2022/08/02 09:23:23;;;;;;;1.42;1.40;;;26.00;77.30;;;;;;5034399;28;20189;-72
2022/08/02 09:25:57;;;;;;;1.33;1.33;;;26.10;75.50;;;;;;5034341;28;20199;-72
2022/08/02 09:28:31;;;;;;;2.08;1.33;;;26.30;72.10;;;;;;5033561;28;20190;-72
2022/08/02 09:31:08;;;;;;;2.67;1.33;;;26.40;69.60;;;;;;5036452;28;20171;-72
2022/08/02 09:33:36;;;;;;;3.40;1.50;;;26.40;68.60;;;;;;5035068;28;20676;-73
2022/08/02 09:36:04;;;;;;;1.95;1.30;;;26.40;69.50;;;;;;5034681;28;20261;-73
2022/08/02 09:38:31;;;;;;;2.03;1.50;;;26.40;68.50;;;;;;5034451;28;20201;-73
2022/08/02 09:40:57;;;;;;;1.77;1.63;;;26.40;69.10;;;;;;5034328;28;20179;-73
2022/08/02 09:43:39;;;;;;;1.40;1.30;;;26.30;67.30;;;;;;5034782;28;20562;-73
2022/08/02 09:46:12;;;;;;;1.95;1.80;;;26.30;67.20;;;;;;5035271;28;20622;-73
2022/08/02 09:48:52;;;;;;;2.33;1.50;;;26.40;68.40;;;;;;5034435;28;20182;-73
2022/08/02 09:51:21;;;;;;;1.40;1.30;;;26.50;68.50;;;;;;5034324;28;20716;-73
2022/08/02 09:53:49;;;;;;;2.00;1.40;;;26.60;66.20;;;;;;5034081;28;20316;-73
2022/08/02 09:56:15;;;;;;;2.83;1.30;;;26.70;64.10;;;;;;5034719;28;20274;-73
2022/08/02 09:58:41;;;;;;;1.25;1.20;;;26.60;64.00;;;;;;5033693;28;20175;-73
2022/08/02 10:01:07;;;;;;;1.75;1.65;;;26.60;64.70;;;;;;5034025;28;20175;-72
2022/08/02 10:03:33;;;;;;;2.35;1.50;;;26.60;64.90;;;;;;5034263;28;20186;-72
2022/08/02 10:06:00;;;;;;;1.95;1.50;;;26.70;63.80;;;;;;5035153;28;20186;-73
2022/08/02 10:08:27;;;;;;;1.40;1.30;;;26.60;63.20;;;;;;5033851;28;20282;-72
2022/08/02 10:10:59;;;;;;;2.25;1.30;;;26.50;62.30;;;;;;5033676;28;20530;-72
2022/08/02 10:13:33;;;;;;;1.65;1.55;;;26.50;62.50;;;;;;5033867;28;20686;-73
2022/08/02 10:16:01;;;;;;;1.40;1.30;;;26.60;61.90;;;;;;5034568;28;20167;-73
2022/08/02 10:18:27;;;;;;;1.65;1.55;;;26.50;61.80;;;;;;5033924;28;20274;-73
2022/08/02 10:20:55;;;;;;;3.20;1.45;;;26.60;63.30;;;;;;5033543;28;20596;-73
2022/08/02 10:23:24;;;;;;;1.48;1.38;;;26.50;61.50;;;;;;5033959;28;20187;-73
2022/08/02 10:25:52;;;;;;;2.03;1.45;;;26.70;61.60;;;;;;5034656;28;20202;-73
2022/08/02 10:28:18;;;;;;;3.85;1.70;;;26.70;60.80;;;;;;5033514;28;20190;-73
2022/08/02 10:30:47;;;;;;;1.50;1.40;;;26.70;60.60;;;;;;5033270;28;20187;-73
2022/08/02 10:33:16;;;;;;;1.88;1.40;;;26.70;61.20;;;;;;5033038;28;20620;-73
2022/08/02 10:35:43;;;;;;;1.52;1.42;;;26.70;60.40;;;;;;5034599;28;20175;-73
2022/08/02 10:38:11;;;;;;;2.65;1.40;;;26.60;60.50;;;;;;5034181;28;20207;-73
2022/08/02 10:40:44;;;;;;;1.60;1.50;;;26.80;61.10;;;;;;5032837;28;20649;-74
2022/08/02 10:43:10;;;;;;;2.67;1.40;;;27.00;59.90;;;;;;5033550;28;20182;-73
2022/08/02 10:45:35;;;;;;;3.17;1.65;;;27.40;59.40;;;;;;5034701;28;20240;-73
2022/08/02 10:48:13;;;;;;;5.22;1.88;;;27.60;58.70;;;;;;5035488;28;20199;-73
2022/08/02 10:50:45;;;;;;;1.73;1.35;;;27.70;56.90;;;;;;5034253;28;20650;-73
2022/08/02 10:53:25;;;;;;;1.75;1.40;;;27.70;56.90;;;;;;5033987;28;20207;-73
2022/08/02 10:55:52;;;;;;;1.75;1.40;;;27.60;57.10;;;;;;5034845;28;20653;-73
2022/08/02 10:58:20;;;;;;;1.60;1.38;;;27.80;57.10;;;;;;5036617;28;20199;-73
2022/08/02 11:00:47;;;;;;;1.05;1.00;;;28.00;54.50;;;;;;5035479;28;20190;-73
2022/08/02 11:03:40;;;;;;;1.38;1.27;;;28.30;54.30;;;;;;5035717;28;20273;-73
2022/08/02 11:06:08;;;;;;;1.83;1.27;;;28.70;53.80;;;;;;5032606;28;20721;-79
2022/08/02 11:08:34;;;;;;;3.50;1.40;;;29.10;53.70;;;;;;5034035;28;20178;-83
2022/08/02 11:11:14;;;;;;;4.78;1.50;;;29.50;52.20;;;;;;5033748;28;20269;-73
2022/08/02 11:14:03;;;;;;;4.28;1.50;;;29.70;51.50;;;;;;5034454;28;20233;-73
2022/08/02 11:16:53;;;;;;;3.95;1.50;;;29.60;52.00;;;;;;5033836;28;20195;-73
2022/08/02 11:19:19;;;;;;;1.33;1.23;;;29.40;51.90;;;;;;5032922;28;20260;-73
2022/08/02 11:22:01;;;;;;;1.75;1.42;;;29.10;51.60;;;;;;5032648;28;20225;-73
2022/08/02 11:24:31;;;;;;;3.92;1.40;;;28.80;52.00;;;;;;5034737;28;20198;-73
2022/08/02 11:26:58;;;;;;;3.53;1.33;;;28.50;52.40;;;;;;5033676;28;20221;-73
2022/08/02 11:29:41;;;;;;;1.20;1.20;;;28.40;52.50;;;;;;5033975;28;20237;-73
2022/08/02 11:32:21;;;;;;;2.05;1.27;;;28.30;51.30;;;;;;5034045;28;20174;-73
2022/08/02 11:34:49;;;;;;;1.23;1.20;;;28.30;51.00;;;;;;5037233;28;20194;-73
2022/08/02 11:37:43;;;;;;;1.50;1.40;;;28.20;52.00;;;;;;5035080;28;20213;-73
2022/08/02 11:40:17;;;;;;;2.33;1.30;;;28.40;50.30;;;;;;5034973;28;20167;-73
2022/08/02 11:42:44;;;;;;;0.95;0.95;;;28.40;49.40;;;;;;5035515;28;20759;-73
2022/08/02 11:45:13;;;;;;;1.05;1.05;;;28.40;49.80;;;;;;5035123;28;20206;-73
2022/08/02 11:47:47;;;;;;;2.58;1.10;;;28.60;49.90;;;;;;5035204;28;20289;-73
2022/08/02 11:50:13;;;;;;;1.35;1.30;;;28.80;50.60;;;;;;5035135;28;20206;-73
2022/08/02 11:52:39;;;;;;;1.55;1.20;;;29.00;49.30;;;;;;5040001;28;20214;-73
2022/08/02 11:55:07;;;;;;;1.30;1.20;;;29.10;48.60;;;;;;5040557;28;20676;-73
2022/08/02 11:57:33;;;;;;;2.13;1.20;;;29.20;49.20;;;;;;5039439;28;20735;-73
2022/08/02 11:59:59;;;;;;;1.50;1.13;;;29.30;48.70;;;;;;5039885;28;20213;-73
2022/08/02 12:02:30;;;;;;;1.33;1.20;;;29.30;47.90;;;;;;5038603;28;20174;-73
2022/08/02 12:05:01;;;;;;;1.20;1.20;;;29.30;47.40;;;;;;5039433;28;20167;-73
2022/08/02 12:07:36;;;;;;;5.72;1.30;;;29.10;47.70;;;;;;5038722;28;20194;-73
2022/08/02 12:10:11;;;;;;;1.50;1.40;;;29.10;46.90;;;;;;5040541;28;20253;-73
2022/08/02 12:12:51;;;;;;;1.30;1.20;;;28.80;47.50;;;;;;5040967;28;20173;-73
2022/08/02 12:15:41;;;;;;;1.70;1.25;;;28.80;48.10;;;;;;5038923;28;20201;-73
2022/08/02 12:20:56;;;;;;;1.25;1.20;;;29.00;47.90;;;;;;5041193;28;20194;-73
2022/08/02 12:23:22;;;;;;;1.95;1.20;;;29.10;47.20;;;;;;5039162;28;20187;-73
2022/08/02 12:26:10;;;;;;;1.10;1.10;;;29.10;47.30;;;;;;5039057;28;20194;-73
2022/08/02 12:28:38;;;;;;;3.30;1.20;;;29.10;46.00;;;;;;5038061;28;20197;-73
2022/08/02 12:31:05;;;;;;;2.75;1.00;;;29.00;47.10;;;;;;5040714;28;20174;-73
2022/08/02 12:33:49;;;;;;;1.90;1.38;;;29.00;45.60;;;;;;5038199;28;20198;-74
2022/08/02 12:36:26;;;;;;;1.17;1.17;;;29.00;45.80;;;;;;5039827;28;20212;-73
2022/08/02 12:38:57;;;;;;;3.17;1.30;;;29.10;46.70;;;;;;5040185;28;20158;-73
2022/08/02 12:41:23;;;;;;;2.10;1.20;;;28.90;45.30;;;;;;5038515;28;20261;-73
2022/08/02 12:43:49;;;;;;;1.17;1.17;;;28.70;44.90;;;;;;5038527;28;20179;-73
2022/08/02 12:46:20;;;;;;;1.38;1.27;;;28.80;46.70;;;;;;5037320;28;20194;-73
2022/08/02 12:48:46;;;;;;;1.10;1.10;;;28.70;44.40;;;;;;5037638;28;20665;-73
2022/08/02 12:51:36;;;;;;;1.27;1.27;;;28.60;45.10;;;;;;5038138;28;20189;-73
2022/08/02 12:54:14;;;;;;;1.70;1.25;;;28.50;45.50;;;;;;5036638;28;20564;-73
2022/08/02 12:56:40;;;;;;;1.30;1.20;;;28.60;46.50;;;;;;5038896;28;20201;-73
2022/08/02 12:59:06;;;;;;;1.52;1.20;;;28.60;47.90;;;;;;5037879;28;20265;-73